sensor_id;sensor_type;location;lat;lon;timestamp;P1;durP1;ratioP1;P2;durP2;ratioP2
65170;SDS011;51757;52.208;5.162;2022-09-02T00:01:25;0.00;;;0.00;;
65170;SDS011;51757;52.208;5.162;2022-09-02T00:03:56;0.00;;;0.00;;
65170;SDS011;51757;52.208;5.162;2022-09-02T00:06:23;0.00;;;0.00;;
65170;SDS011;51757;52.208;5.162;2022-09-02T00:08:59;0.00;;;0.00;;
65170;SDS011;51757;52.208;5.162;2022-09-02T00:11:29;0.00;;;0.00;;
65170;SDS011;51757;52.208;5.162;2022-09-02T00:14:11;0.00;;;0.00;;
65170;SDS011;51757;52.208;5.162;2022-09-02T00:16:40;0.00;;;0.00;;
65170;SDS011;51757;52.208;5.162;2022-09-02T00:19:15;0.00;;;0.00;;
65170;SDS011;51757;52.208;5.162;2022-09-02T00:21:46;0.00;;;0.00;;
65170;SDS011;51757;52.208;5.162;2022-09-02T00:24:14;0.00;;;0.00;;
65170;SDS011;51757;52.208;5.162;2022-09-02T00:26:42;0.05;;;0.00;;
65170;SDS011;51757;52.208;5.162;2022-09-02T00:29:10;0.00;;;0.00;;
65170;SDS011;51757;52.208;5.162;2022-09-02T00:31:38;0.00;;;0.00;;
65170;SDS011;51757;52.208;5.162;2022-09-02T00:34:06;0.00;;;0.00;;
65170;SDS011;51757;52.208;5.162;2022-09-02T00:36:34;0.00;;;0.00;;
65170;SDS011;51757;52.208;5.162;2022-09-02T00:39:05;0.00;;;0.00;;
65170;SDS011;51757;52.208;5.162;2022-09-02T00:41:37;0.00;;;0.00;;
65170;SDS011;51757;52.208;5.162;2022-09-02T00:44:14;0.00;;;0.00;;
65170;SDS011;51757;52.208;5.162;2022-09-02T00:46:46;0.00;;;0.00;;
65170;SDS011;51757;52.208;5.162;2022-09-02T00:49:16;0.00;;;0.00;;
65170;SDS011;51757;52.208;5.162;2022-09-02T00:51:55;0.00;;;0.00;;
65170;SDS011;51757;52.208;5.162;2022-09-02T00:54:26;0.00;;;0.00;;
65170;SDS011;51757;52.208;5.162;2022-09-02T00:56:52;0.00;;;0.00;;
65170;SDS011;51757;52.208;5.162;2022-09-02T00:59:22;0.00;;;0.00;;
65170;SDS011;51757;52.208;5.162;2022-09-02T01:01:56;0.00;;;0.00;;
65170;SDS011;51757;52.208;5.162;2022-09-02T01:04:33;0.00;;;0.00;;
65170;SDS011;51757;52.208;5.162;2022-09-02T01:07:03;0.00;;;0.00;;
65170;SDS011;51757;52.208;5.162;2022-09-02T01:09:37;0.00;;;0.00;;
65170;SDS011;51757;52.208;5.162;2022-09-02T01:12:03;0.03;;;0.00;;
65170;SDS011;51757;52.208;5.162;2022-09-02T01:14:31;0.00;;;0.00;;
65170;SDS011;51757;52.208;5.162;2022-09-02T01:16:59;0.00;;;0.00;;
65170;SDS011;51757;52.208;5.162;2022-09-02T01:19:28;0.00;;;0.00;;
65170;SDS011;51757;52.208;5.162;2022-09-02T01:21:59;0.00;;;0.00;;
65170;SDS011;51757;52.208;5.162;2022-09-02T01:24:33;0.00;;;0.00;;
65170;SDS011;51757;52.208;5.162;2022-09-02T01:26:59;0.00;;;0.00;;
65170;SDS011;51757;52.208;5.162;2022-09-02T01:29:29;0.00;;;0.00;;
65170;SDS011;51757;52.208;5.162;2022-09-02T01:31:58;0.00;;;0.00;;
65170;SDS011;51757;52.208;5.162;2022-09-02T01:34:24;0.00;;;0.00;;
65170;SDS011;51757;52.208;5.162;2022-09-02T01:36:49;0.00;;;0.00;;
65170;SDS011;51757;52.208;5.162;2022-09-02T01:39:15;0.00;;;0.00;;
65170;SDS011;51757;52.208;5.162;2022-09-02T01:41:41;0.00;;;0.00;;
65170;SDS011;51757;52.208;5.162;2022-09-02T01:44:10;0.00;;;0.00;;
65170;SDS011;51757;52.208;5.162;2022-09-02T01:46:39;0.00;;;0.00;;
65170;SDS011;51757;52.208;5.162;2022-09-02T01:49:10;0.00;;;0.00;;
65170;SDS011;51757;52.208;5.162;2022-09-02T01:51:36;0.00;;;0.00;;
65170;SDS011;51757;52.208;5.162;2022-09-02T01:54:01;0.00;;;0.00;;
65170;SDS011;51757;52.208;5.162;2022-09-02T01:56:27;0.00;;;0.00;;
65170;SDS011;51757;52.208;5.162;2022-09-02T01:58:53;0.00;;;0.00;;
65170;SDS011;51757;52.208;5.162;2022-09-02T02:01:19;0.00;;;0.00;;
65170;SDS011;51757;52.208;5.162;2022-09-02T02:03:44;0.00;;;0.00;;
65170;SDS011;51757;52.208;5.162;2022-09-02T02:06:11;0.00;;;0.00;;
65170;SDS011;51757;52.208;5.162;2022-09-02T02:08:40;0.00;;;0.00;;
65170;SDS011;51757;52.208;5.162;2022-09-02T02:11:10;0.00;;;0.00;;
65170;SDS011;51757;52.208;5.162;2022-09-02T02:13:36;0.00;;;0.00;;
65170;SDS011;51757;52.208;5.162;2022-09-02T02:16:02;0.00;;;0.00;;
65170;SDS011;51757;52.208;5.162;2022-09-02T02:18:41;0.00;;;0.00;;
65170;SDS011;51757;52.208;5.162;2022-09-02T02:21:06;0.00;;;0.00;;
65170;SDS011;51757;52.208;5.162;2022-09-02T02:23:35;0.00;;;0.00;;
65170;SDS011;51757;52.208;5.162;2022-09-02T02:26:01;0.00;;;0.00;;
65170;SDS011;51757;52.208;5.162;2022-09-02T02:28:26;0.00;;;0.00;;
65170;SDS011;51757;52.208;5.162;2022-09-02T02:31:01;0.00;;;0.00;;
65170;SDS011;51757;52.208;5.162;2022-09-02T02:33:29;0.00;;;0.00;;
65170;SDS011;51757;52.208;5.162;2022-09-02T02:35:55;0.00;;;0.00;;
65170;SDS011;51757;52.208;5.162;2022-09-02T02:38:21;0.00;;;0.00;;
65170;SDS011;51757;52.208;5.162;2022-09-02T02:40:47;0.00;;;0.00;;
65170;SDS011;51757;52.208;5.162;2022-09-02T02:43:16;0.00;;;0.00;;
65170;SDS011;51757;52.208;5.162;2022-09-02T02:45:44;0.00;;;0.00;;
65170;SDS011;51757;52.208;5.162;2022-09-02T02:48:10;0.00;;;0.00;;
65170;SDS011;51757;52.208;5.162;2022-09-02T02:50:38;0.00;;;0.00;;
65170;SDS011;51757;52.208;5.162;2022-09-02T02:53:04;0.00;;;0.00;;
65170;SDS011;51757;52.208;5.162;2022-09-02T02:55:32;0.00;;;0.00;;
65170;SDS011;51757;52.208;5.162;2022-09-02T02:57:57;0.00;;;0.00;;
65170;SDS011;51757;52.208;5.162;2022-09-02T03:00:29;0.00;;;0.00;;
65170;SDS011;51757;52.208;5.162;2022-09-02T03:03:01;0.00;;;0.00;;
65170;SDS011;51757;52.208;5.162;2022-09-02T03:05:31;0.00;;;0.00;;
65170;SDS011;51757;52.208;5.162;2022-09-02T03:08:02;0.00;;;0.00;;
65170;SDS011;51757;52.208;5.162;2022-09-02T03:10:32;0.00;;;0.00;;
65170;SDS011;51757;52.208;5.162;2022-09-02T03:13:01;0.00;;;0.00;;
65170;SDS011;51757;52.208;5.162;2022-09-02T03:15:27;0.00;;;0.00;;
65170;SDS011;51757;52.208;5.162;2022-09-02T03:17:54;0.00;;;0.00;;
65170;SDS011;51757;52.208;5.162;2022-09-02T03:20:28;0.00;;;0.00;;
65170;SDS011;51757;52.208;5.162;2022-09-02T03:23:03;0.00;;;0.00;;
65170;SDS011;51757;52.208;5.162;2022-09-02T03:25:30;0.00;;;0.00;;
65170;SDS011;51757;52.208;5.162;2022-09-02T03:27:59;0.00;;;0.00;;
65170;SDS011;51757;52.208;5.162;2022-09-02T03:30:27;0.00;;;0.00;;
65170;SDS011;51757;52.208;5.162;2022-09-02T03:33:00;0.00;;;0.00;;
65170;SDS011;51757;52.208;5.162;2022-09-02T03:35:29;0.00;;;0.00;;
65170;SDS011;51757;52.208;5.162;2022-09-02T03:38:01;0.00;;;0.00;;
65170;SDS011;51757;52.208;5.162;2022-09-02T03:40:31;0.00;;;0.00;;
65170;SDS011;51757;52.208;5.162;2022-09-02T03:42:57;0.00;;;0.00;;
65170;SDS011;51757;52.208;5.162;2022-09-02T03:45:28;0.00;;;0.00;;
65170;SDS011;51757;52.208;5.162;2022-09-02T03:47:55;0.13;;;0.00;;
65170;SDS011;51757;52.208;5.162;2022-09-02T03:50:28;0.00;;;0.00;;
65170;SDS011;51757;52.208;5.162;2022-09-02T03:52:55;0.00;;;0.00;;
65170;SDS011;51757;52.208;5.162;2022-09-02T03:55:29;0.00;;;0.00;;
65170;SDS011;51757;52.208;5.162;2022-09-02T03:58:00;0.00;;;0.00;;
65170;SDS011;51757;52.208;5.162;2022-09-02T04:00:26;0.00;;;0.00;;
65170;SDS011;51757;52.208;5.162;2022-09-02T04:02:56;0.00;;;0.00;;
65170;SDS011;51757;52.208;5.162;2022-09-02T04:05:22;0.00;;;0.00;;
65170;SDS011;51757;52.208;5.162;2022-09-02T04:07:50;0.00;;;0.00;;
65170;SDS011;51757;52.208;5.162;2022-09-02T04:10:19;0.00;;;0.00;;
65170;SDS011;51757;52.208;5.162;2022-09-02T04:12:57;0.00;;;0.00;;
65170;SDS011;51757;52.208;5.162;2022-09-02T04:15:23;0.00;;;0.00;;
65170;SDS011;51757;52.208;5.162;2022-09-02T04:18:08;0.00;;;0.00;;
65170;SDS011;51757;52.208;5.162;2022-09-02T04:20:40;0.00;;;0.00;;
65170;SDS011;51757;52.208;5.162;2022-09-02T04:23:06;0.00;;;0.00;;
65170;SDS011;51757;52.208;5.162;2022-09-02T04:25:55;0.00;;;0.00;;
65170;SDS011;51757;52.208;5.162;2022-09-02T04:28:21;0.00;;;0.00;;
65170;SDS011;51757;52.208;5.162;2022-09-02T04:30:49;0.00;;;0.00;;
65170;SDS011;51757;52.208;5.162;2022-09-02T04:33:16;0.00;;;0.00;;
65170;SDS011;51757;52.208;5.162;2022-09-02T04:35:44;0.00;;;0.00;;
65170;SDS011;51757;52.208;5.162;2022-09-02T04:38:16;0.00;;;0.00;;
65170;SDS011;51757;52.208;5.162;2022-09-02T04:40:45;0.00;;;0.00;;
65170;SDS011;51757;52.208;5.162;2022-09-02T04:43:16;0.00;;;0.00;;
65170;SDS011;51757;52.208;5.162;2022-09-02T04:45:50;0.00;;;0.00;;
65170;SDS011;51757;52.208;5.162;2022-09-02T04:48:18;0.00;;;0.00;;
65170;SDS011;51757;52.208;5.162;2022-09-02T04:50:44;0.00;;;0.00;;
65170;SDS011;51757;52.208;5.162;2022-09-02T04:53:15;0.00;;;0.00;;
65170;SDS011;51757;52.208;5.162;2022-09-02T04:55:56;0.00;;;0.00;;
65170;SDS011;51757;52.208;5.162;2022-09-02T04:58:25;0.00;;;0.00;;
65170;SDS011;51757;52.208;5.162;2022-09-02T05:00:52;0.00;;;0.00;;
65170;SDS011;51757;52.208;5.162;2022-09-02T05:03:25;0.00;;;0.00;;
65170;SDS011;51757;52.208;5.162;2022-09-02T05:05:58;0.20;;;0.00;;
65170;SDS011;51757;52.208;5.162;2022-09-02T05:08:25;0.00;;;0.00;;
65170;SDS011;51757;52.208;5.162;2022-09-02T05:10:55;0.00;;;0.00;;
65170;SDS011;51757;52.208;5.162;2022-09-02T05:13:30;0.00;;;0.00;;
65170;SDS011;51757;52.208;5.162;2022-09-02T05:16:08;0.00;;;0.00;;
65170;SDS011;51757;52.208;5.162;2022-09-02T05:18:34;0.00;;;0.00;;
65170;SDS011;51757;52.208;5.162;2022-09-02T05:21:08;0.00;;;0.00;;
65170;SDS011;51757;52.208;5.162;2022-09-02T05:26:12;0.00;;;0.00;;
65170;SDS011;51757;52.208;5.162;2022-09-02T05:28:40;0.00;;;0.00;;
65170;SDS011;51757;52.208;5.162;2022-09-02T05:31:10;0.00;;;0.00;;
65170;SDS011;51757;52.208;5.162;2022-09-02T05:33:38;0.00;;;0.00;;
65170;SDS011;51757;52.208;5.162;2022-09-02T05:36:24;0.00;;;0.00;;
65170;SDS011;51757;52.208;5.162;2022-09-02T05:38:52;0.00;;;0.00;;
65170;SDS011;51757;52.208;5.162;2022-09-02T05:41:26;0.00;;;0.00;;
65170;SDS011;51757;52.208;5.162;2022-09-02T05:43:54;0.00;;;0.00;;
65170;SDS011;51757;52.208;5.162;2022-09-02T05:47:06;0.00;;;0.00;;
65170;SDS011;51757;52.208;5.162;2022-09-02T05:49:42;0.00;;;0.00;;
65170;SDS011;51757;52.208;5.162;2022-09-02T05:52:18;0.00;;;0.00;;
65170;SDS011;51757;52.208;5.162;2022-09-02T05:55:03;0.00;;;0.00;;
65170;SDS011;51757;52.208;5.162;2022-09-02T05:57:42;0.00;;;0.00;;
65170;SDS011;51757;52.208;5.162;2022-09-02T06:00:11;0.00;;;0.00;;
65170;SDS011;51757;52.208;5.162;2022-09-02T06:02:41;0.00;;;0.00;;
65170;SDS011;51757;52.208;5.162;2022-09-02T06:05:11;0.00;;;0.00;;
65170;SDS011;51757;52.208;5.162;2022-09-02T06:07:44;0.00;;;0.00;;
65170;SDS011;51757;52.208;5.162;2022-09-02T06:10:15;0.00;;;0.00;;
65170;SDS011;51757;52.208;5.162;2022-09-02T06:12:40;0.00;;;0.00;;
65170;SDS011;51757;52.208;5.162;2022-09-02T06:15:09;0.00;;;0.00;;
65170;SDS011;51757;52.208;5.162;2022-09-02T06:17:38;0.00;;;0.00;;
65170;SDS011;51757;52.208;5.162;2022-09-02T06:20:04;0.00;;;0.00;;
65170;SDS011;51757;52.208;5.162;2022-09-02T06:22:33;0.00;;;0.00;;
65170;SDS011;51757;52.208;5.162;2022-09-02T06:25:02;0.00;;;0.00;;
65170;SDS011;51757;52.208;5.162;2022-09-02T06:27:27;0.00;;;0.00;;
65170;SDS011;51757;52.208;5.162;2022-09-02T06:29:53;0.00;;;0.00;;
65170;SDS011;51757;52.208;5.162;2022-09-02T06:32:24;0.00;;;0.00;;
65170;SDS011;51757;52.208;5.162;2022-09-02T06:34:49;0.00;;;0.00;;
65170;SDS011;51757;52.208;5.162;2022-09-02T06:37:17;0.00;;;0.00;;
65170;SDS011;51757;52.208;5.162;2022-09-02T06:39:43;0.00;;;0.00;;
65170;SDS011;51757;52.208;5.162;2022-09-02T06:42:24;0.10;;;0.10;;
65170;SDS011;51757;52.208;5.162;2022-09-02T06:45:02;0.10;;;0.00;;
65170;SDS011;51757;52.208;5.162;2022-09-02T06:47:31;0.00;;;0.00;;
65170;SDS011;51757;52.208;5.162;2022-09-02T06:50:07;0.00;;;0.00;;
65170;SDS011;51757;52.208;5.162;2022-09-02T06:52:35;0.00;;;0.00;;
65170;SDS011;51757;52.208;5.162;2022-09-02T06:55:03;0.00;;;0.00;;
65170;SDS011;51757;52.208;5.162;2022-09-02T06:57:34;0.00;;;0.00;;
65170;SDS011;51757;52.208;5.162;2022-09-02T07:00:07;0.00;;;0.00;;
65170;SDS011;51757;52.208;5.162;2022-09-02T07:02:44;0.00;;;0.00;;
65170;SDS011;51757;52.208;5.162;2022-09-02T07:05:30;0.00;;;0.00;;
65170;SDS011;51757;52.208;5.162;2022-09-02T07:08:01;0.00;;;0.00;;
65170;SDS011;51757;52.208;5.162;2022-09-02T07:10:36;0.00;;;0.00;;
65170;SDS011;51757;52.208;5.162;2022-09-02T07:13:19;0.00;;;0.00;;
65170;SDS011;51757;52.208;5.162;2022-09-02T07:16:10;0.00;;;0.00;;
65170;SDS011;51757;52.208;5.162;2022-09-02T07:18:53;0.00;;;0.00;;
65170;SDS011;51757;52.208;5.162;2022-09-02T07:21:38;0.00;;;0.00;;
65170;SDS011;51757;52.208;5.162;2022-09-02T07:24:13;0.00;;;0.00;;
65170;SDS011;51757;52.208;5.162;2022-09-02T07:29:55;0.00;;;0.00;;
65170;SDS011;51757;52.208;5.162;2022-09-02T07:32:27;0.00;;;0.00;;
65170;SDS011;51757;52.208;5.162;2022-09-02T07:34:59;0.00;;;0.00;;
65170;SDS011;51757;52.208;5.162;2022-09-02T07:37:38;0.00;;;0.00;;
65170;SDS011;51757;52.208;5.162;2022-09-02T07:40:05;0.00;;;0.00;;
65170;SDS011;51757;52.208;5.162;2022-09-02T07:42:36;0.00;;;0.00;;
65170;SDS011;51757;52.208;5.162;2022-09-02T07:45:02;0.00;;;0.00;;
65170;SDS011;51757;52.208;5.162;2022-09-02T07:47:32;0.00;;;0.00;;
65170;SDS011;51757;52.208;5.162;2022-09-02T07:50:00;0.00;;;0.00;;
65170;SDS011;51757;52.208;5.162;2022-09-02T07:52:36;0.00;;;0.00;;
65170;SDS011;51757;52.208;5.162;2022-09-02T07:55:05;0.00;;;0.00;;
65170;SDS011;51757;52.208;5.162;2022-09-02T07:57:34;0.00;;;0.00;;
65170;SDS011;51757;52.208;5.162;2022-09-02T08:00:07;0.00;;;0.00;;
65170;SDS011;51757;52.208;5.162;2022-09-02T08:08:57;0.00;;;0.00;;
65170;SDS011;51757;52.208;5.162;2022-09-02T08:11:23;0.00;;;0.00;;
65170;SDS011;51757;52.208;5.162;2022-09-02T08:23:04;0.00;;;0.00;;
65170;SDS011;51757;52.208;5.162;2022-09-02T08:25:33;0.00;;;0.00;;
65170;SDS011;51757;52.208;5.162;2022-09-02T08:28:06;0.00;;;0.00;;
65170;SDS011;51757;52.208;5.162;2022-09-02T08:31:02;0.40;;;0.05;;
65170;SDS011;51757;52.208;5.162;2022-09-02T08:54:24;0.00;;;0.00;;
65170;SDS011;51757;52.208;5.162;2022-09-02T08:57:04;0.30;;;0.10;;
65170;SDS011;51757;52.208;5.162;2022-09-02T08:59:35;0.00;;;0.00;;
65170;SDS011;51757;52.208;5.162;2022-09-02T09:08:51;0.00;;;0.00;;
65170;SDS011;51757;52.208;5.162;2022-09-02T09:18:28;0.00;;;0.00;;
65170;SDS011;51757;52.208;5.162;2022-09-02T09:21:08;0.00;;;0.00;;
65170;SDS011;51757;52.208;5.162;2022-09-02T09:30:55;0.00;;;0.00;;
65170;SDS011;51757;52.208;5.162;2022-09-02T09:45:47;0.00;;;0.00;;
65170;SDS011;51757;52.208;5.162;2022-09-02T09:51:20;0.00;;;0.00;;
65170;SDS011;51757;52.208;5.162;2022-09-02T09:53:53;0.00;;;0.00;;
65170;SDS011;51757;52.208;5.162;2022-09-02T09:56:46;0.00;;;0.00;;
65170;SDS011;51757;52.208;5.162;2022-09-02T09:59:43;0.00;;;0.00;;
65170;SDS011;51757;52.208;5.162;2022-09-02T10:02:21;0.00;;;0.00;;
65170;SDS011;51757;52.208;5.162;2022-09-02T10:04:51;0.00;;;0.00;;
65170;SDS011;51757;52.208;5.162;2022-09-02T10:11:02;0.00;;;0.00;;
65170;SDS011;51757;52.208;5.162;2022-09-02T10:14:19;0.00;;;0.00;;
65170;SDS011;51757;52.208;5.162;2022-09-02T10:26:47;0.00;;;0.00;;
65170;SDS011;51757;52.208;5.162;2022-09-02T10:37:27;0.00;;;0.00;;
65170;SDS011;51757;52.208;5.162;2022-09-02T10:53:37;0.00;;;0.00;;
65170;SDS011;51757;52.208;5.162;2022-09-02T11:12:31;0.00;;;0.00;;
65170;SDS011;51757;52.208;5.162;2022-09-02T11:33:49;0.00;;;0.00;;
65170;SDS011;51757;52.208;5.162;2022-09-02T11:42:34;0.00;;;0.00;;
65170;SDS011;51757;52.208;5.162;2022-09-02T12:01:37;0.00;;;0.00;;
65170;SDS011;51757;52.208;5.162;2022-09-02T12:09:47;0.00;;;0.00;;
65170;SDS011;51757;52.208;5.162;2022-09-02T12:15:39;0.00;;;0.00;;
65170;SDS011;51757;52.208;5.162;2022-09-02T12:18:38;0.00;;;0.00;;
65170;SDS011;51757;52.208;5.162;2022-09-02T12:25:02;0.00;;;0.00;;
65170;SDS011;51757;52.208;5.162;2022-09-02T12:27:53;0.05;;;0.05;;
65170;SDS011;51757;52.208;5.162;2022-09-02T12:33:38;0.00;;;0.00;;
65170;SDS011;51757;52.208;5.162;2022-09-02T12:36:06;0.00;;;0.00;;
65170;SDS011;51757;52.208;5.162;2022-09-02T12:41:20;0.00;;;0.00;;
65170;SDS011;51757;52.208;5.162;2022-09-02T12:52:01;0.03;;;0.03;;
65170;SDS011;51757;52.208;5.162;2022-09-02T12:57:16;0.00;;;0.00;;
65170;SDS011;51757;52.208;5.162;2022-09-02T12:59:57;0.00;;;0.00;;
65170;SDS011;51757;52.208;5.162;2022-09-02T13:11:46;0.00;;;0.00;;
65170;SDS011;51757;52.208;5.162;2022-09-02T13:14:45;0.00;;;0.00;;
65170;SDS011;51757;52.208;5.162;2022-09-02T13:26:39;0.00;;;0.00;;
65170;SDS011;51757;52.208;5.162;2022-09-02T13:32:15;0.00;;;0.00;;
65170;SDS011;51757;52.208;5.162;2022-09-02T13:34:51;0.00;;;0.00;;
65170;SDS011;51757;52.208;5.162;2022-09-02T13:37:25;0.00;;;0.00;;
65170;SDS011;51757;52.208;5.162;2022-09-02T13:40:06;0.00;;;0.00;;
65170;SDS011;51757;52.208;5.162;2022-09-02T13:42:58;0.00;;;0.00;;
65170;SDS011;51757;52.208;5.162;2022-09-02T13:45:35;0.00;;;0.00;;
65170;SDS011;51757;52.208;5.162;2022-09-02T13:48:18;0.00;;;0.00;;
65170;SDS011;51757;52.208;5.162;2022-09-02T13:53:46;0.00;;;0.00;;
65170;SDS011;51757;52.208;5.162;2022-09-02T13:56:22;0.00;;;0.00;;
65170;SDS011;51757;52.208;5.162;2022-09-02T13:59:06;0.00;;;0.00;;
65170;SDS011;51757;52.208;5.162;2022-09-02T14:01:46;0.00;;;0.00;;
65170;SDS011;51757;52.208;5.162;2022-09-02T14:04:24;0.00;;;0.00;;
65170;SDS011;51757;52.208;5.162;2022-09-02T14:07:02;0.00;;;0.00;;
65170;SDS011;51757;52.208;5.162;2022-09-02T14:09:34;0.00;;;0.00;;
65170;SDS011;51757;52.208;5.162;2022-09-02T14:12:14;0.00;;;0.00;;
65170;SDS011;51757;52.208;5.162;2022-09-02T14:14:43;0.00;;;0.00;;
65170;SDS011;51757;52.208;5.162;2022-09-02T14:17:22;0.00;;;0.00;;
65170;SDS011;51757;52.208;5.162;2022-09-02T14:20:36;0.00;;;0.00;;
65170;SDS011;51757;52.208;5.162;2022-09-02T14:22:42;0.00;;;0.00;;
65170;SDS011;51757;52.208;5.162;2022-09-02T14:25:14;0.10;;;0.10;;
65170;SDS011;51757;52.208;5.162;2022-09-02T14:27:58;0.00;;;0.00;;
65170;SDS011;51757;52.208;5.162;2022-09-02T14:30:36;0.00;;;0.00;;
65170;SDS011;51757;52.208;5.162;2022-09-02T14:41:26;0.00;;;0.00;;
65170;SDS011;51757;52.208;5.162;2022-09-02T14:44:10;0.10;;;0.10;;
65170;SDS011;51757;52.208;5.162;2022-09-02T14:46:47;0.30;;;0.30;;
65170;SDS011;51757;52.208;5.162;2022-09-02T14:51:53;0.40;;;0.40;;
65170;SDS011;51757;52.208;5.162;2022-09-02T14:54:39;0.40;;;0.40;;
65170;SDS011;51757;52.208;5.162;2022-09-02T15:00:12;0.60;;;0.60;;
65170;SDS011;51757;52.208;5.162;2022-09-02T15:02:52;0.70;;;0.70;;
65170;SDS011;51757;52.208;5.162;2022-09-02T15:05:30;0.80;;;0.80;;
65170;SDS011;51757;52.208;5.162;2022-09-02T15:07:55;1.00;;;1.00;;
65170;SDS011;51757;52.208;5.162;2022-09-02T15:10:29;0.95;;;0.95;;
65170;SDS011;51757;52.208;5.162;2022-09-02T15:12:55;1.30;;;1.30;;
65170;SDS011;51757;52.208;5.162;2022-09-02T15:15:38;1.40;;;1.40;;
65170;SDS011;51757;52.208;5.162;2022-09-02T15:20:56;1.60;;;1.60;;
65170;SDS011;51757;52.208;5.162;2022-09-02T15:26:26;1.90;;;1.90;;
65170;SDS011;51757;52.208;5.162;2022-09-02T15:29:04;2.10;;;2.00;;
65170;SDS011;51757;52.208;5.162;2022-09-02T15:31:40;2.20;;;2.10;;
65170;SDS011;51757;52.208;5.162;2022-09-02T15:34:12;2.30;;;2.20;;
65170;SDS011;51757;52.208;5.162;2022-09-02T15:36:48;1.77;;;1.77;;
65170;SDS011;51757;52.208;5.162;2022-09-02T15:39:21;2.30;;;2.20;;
65170;SDS011;51757;52.208;5.162;2022-09-02T15:41:55;2.33;;;2.22;;
65170;SDS011;51757;52.208;5.162;2022-09-02T15:44:47;2.30;;;2.20;;
65170;SDS011;51757;52.208;5.162;2022-09-02T15:47:23;2.50;;;2.40;;
65170;SDS011;51757;52.208;5.162;2022-09-02T15:52:53;2.80;;;2.70;;
65170;SDS011;51757;52.208;5.162;2022-09-02T15:55:48;2.78;;;2.67;;
65170;SDS011;51757;52.208;5.162;2022-09-02T15:58:59;2.70;;;2.60;;
65170;SDS011;51757;52.208;5.162;2022-09-02T16:02:01;2.50;;;2.40;;
65170;SDS011;51757;52.208;5.162;2022-09-02T16:14:28;3.03;;;2.92;;
65170;SDS011;51757;52.208;5.162;2022-09-02T16:16:50;0.70;;;0.70;;
65170;SDS011;51757;52.208;5.162;2022-09-02T16:19:21;0.40;;;0.40;;
65170;SDS011;51757;52.208;5.162;2022-09-02T16:22:10;0.25;;;0.25;;
65170;SDS011;51757;52.208;5.162;2022-09-02T16:25:08;0.10;;;0.10;;
65170;SDS011;51757;52.208;5.162;2022-09-02T16:27:34;0.30;;;0.30;;
65170;SDS011;51757;52.208;5.162;2022-09-02T16:36:57;0.20;;;0.20;;
65170;SDS011;51757;52.208;5.162;2022-09-02T16:39:26;0.10;;;0.10;;
65170;SDS011;51757;52.208;5.162;2022-09-02T16:42:10;0.10;;;0.10;;
65170;SDS011;51757;52.208;5.162;2022-09-02T16:44:36;0.00;;;0.00;;
65170;SDS011;51757;52.208;5.162;2022-09-02T16:47:11;0.00;;;0.00;;
65170;SDS011;51757;52.208;5.162;2022-09-02T16:49:57;0.00;;;0.00;;
65170;SDS011;51757;52.208;5.162;2022-09-02T16:52:25;0.10;;;0.10;;
65170;SDS011;51757;52.208;5.162;2022-09-02T16:55:08;0.00;;;0.00;;
65170;SDS011;51757;52.208;5.162;2022-09-02T16:57:34;0.00;;;0.00;;
65170;SDS011;51757;52.208;5.162;2022-09-02T17:00:05;0.00;;;0.00;;
65170;SDS011;51757;52.208;5.162;2022-09-02T17:02:38;0.00;;;0.00;;
65170;SDS011;51757;52.208;5.162;2022-09-02T17:05:15;0.00;;;0.00;;
65170;SDS011;51757;52.208;5.162;2022-09-02T17:07:49;0.00;;;0.00;;
65170;SDS011;51757;52.208;5.162;2022-09-02T17:10:22;0.00;;;0.00;;
65170;SDS011;51757;52.208;5.162;2022-09-02T17:12:52;0.00;;;0.00;;
65170;SDS011;51757;52.208;5.162;2022-09-02T17:15:20;0.00;;;0.00;;
65170;SDS011;51757;52.208;5.162;2022-09-02T17:17:50;0.10;;;0.10;;
65170;SDS011;51757;52.208;5.162;2022-09-02T17:20:36;0.00;;;0.00;;
65170;SDS011;51757;52.208;5.162;2022-09-02T17:23:42;0.00;;;0.00;;
65170;SDS011;51757;52.208;5.162;2022-09-02T17:26:11;0.10;;;0.10;;
65170;SDS011;51757;52.208;5.162;2022-09-02T17:28:41;0.00;;;0.00;;
65170;SDS011;51757;52.208;5.162;2022-09-02T17:31:23;0.00;;;0.00;;
65170;SDS011;51757;52.208;5.162;2022-09-02T17:34:18;0.00;;;0.00;;
65170;SDS011;51757;52.208;5.162;2022-09-02T17:36:44;0.00;;;0.00;;
65170;SDS011;51757;52.208;5.162;2022-09-02T17:39:19;0.00;;;0.00;;
65170;SDS011;51757;52.208;5.162;2022-09-02T17:41:44;0.00;;;0.00;;
65170;SDS011;51757;52.208;5.162;2022-09-02T17:44:40;0.00;;;0.00;;
65170;SDS011;51757;52.208;5.162;2022-09-02T17:47:16;0.00;;;0.00;;
65170;SDS011;51757;52.208;5.162;2022-09-02T17:49:50;0.00;;;0.00;;
65170;SDS011;51757;52.208;5.162;2022-09-02T17:52:17;0.00;;;0.00;;
65170;SDS011;51757;52.208;5.162;2022-09-02T17:58:05;0.00;;;0.00;;
65170;SDS011;51757;52.208;5.162;2022-09-02T18:00:56;0.00;;;0.00;;
65170;SDS011;51757;52.208;5.162;2022-09-02T18:06:30;0.00;;;0.00;;
65170;SDS011;51757;52.208;5.162;2022-09-02T18:08:58;0.00;;;0.00;;
65170;SDS011;51757;52.208;5.162;2022-09-02T18:11:31;0.00;;;0.00;;
65170;SDS011;51757;52.208;5.162;2022-09-02T18:27:38;0.00;;;0.00;;
65170;SDS011;51757;52.208;5.162;2022-09-02T18:30:23;0.00;;;0.00;;
65170;SDS011;51757;52.208;5.162;2022-09-02T18:33:02;0.00;;;0.00;;
65170;SDS011;51757;52.208;5.162;2022-09-02T18:44:17;0.00;;;0.00;;
65170;SDS011;51757;52.208;5.162;2022-09-02T18:49:53;0.00;;;0.00;;
65170;SDS011;51757;52.208;5.162;2022-09-02T18:52:26;0.00;;;0.00;;
65170;SDS011;51757;52.208;5.162;2022-09-02T18:55:18;0.00;;;0.00;;
65170;SDS011;51757;52.208;5.162;2022-09-02T18:57:54;0.00;;;0.00;;
65170;SDS011;51757;52.208;5.162;2022-09-02T19:00:25;0.00;;;0.00;;
65170;SDS011;51757;52.208;5.162;2022-09-02T19:03:00;0.00;;;0.00;;
65170;SDS011;51757;52.208;5.162;2022-09-02T19:05:29;0.00;;;0.00;;
65170;SDS011;51757;52.208;5.162;2022-09-02T19:08:53;0.00;;;0.00;;
65170;SDS011;51757;52.208;5.162;2022-09-02T19:11:00;0.00;;;0.00;;
65170;SDS011;51757;52.208;5.162;2022-09-02T19:14:39;0.00;;;0.00;;
65170;SDS011;51757;52.208;5.162;2022-09-02T19:17:20;0.00;;;0.00;;
65170;SDS011;51757;52.208;5.162;2022-09-02T19:20:35;0.00;;;0.00;;
65170;SDS011;51757;52.208;5.162;2022-09-02T19:23:07;0.00;;;0.00;;
65170;SDS011;51757;52.208;5.162;2022-09-02T19:25:40;0.00;;;0.00;;
65170;SDS011;51757;52.208;5.162;2022-09-02T19:28:28;0.00;;;0.00;;
65170;SDS011;51757;52.208;5.162;2022-09-02T19:31:02;0.00;;;0.00;;
65170;SDS011;51757;52.208;5.162;2022-09-02T19:33:31;0.00;;;0.00;;
65170;SDS011;51757;52.208;5.162;2022-09-02T19:36:00;0.00;;;0.00;;
65170;SDS011;51757;52.208;5.162;2022-09-02T19:38:32;0.00;;;0.00;;
65170;SDS011;51757;52.208;5.162;2022-09-02T19:41:05;0.00;;;0.00;;
65170;SDS011;51757;52.208;5.162;2022-09-02T19:43:54;0.00;;;0.00;;
65170;SDS011;51757;52.208;5.162;2022-09-02T19:46:19;0.00;;;0.00;;
65170;SDS011;51757;52.208;5.162;2022-09-02T19:49:08;0.00;;;0.00;;
65170;SDS011;51757;52.208;5.162;2022-09-02T19:51:40;0.00;;;0.00;;
65170;SDS011;51757;52.208;5.162;2022-09-02T19:54:11;0.00;;;0.00;;
65170;SDS011;51757;52.208;5.162;2022-09-02T19:56:44;0.00;;;0.00;;
65170;SDS011;51757;52.208;5.162;2022-09-02T19:59:10;0.00;;;0.00;;
65170;SDS011;51757;52.208;5.162;2022-09-02T20:01:37;0.00;;;0.00;;
65170;SDS011;51757;52.208;5.162;2022-09-02T20:04:03;0.00;;;0.00;;
65170;SDS011;51757;52.208;5.162;2022-09-02T20:06:49;0.00;;;0.00;;
65170;SDS011;51757;52.208;5.162;2022-09-02T20:09:19;0.00;;;0.00;;
65170;SDS011;51757;52.208;5.162;2022-09-02T20:11:57;0.00;;;0.00;;
65170;SDS011;51757;52.208;5.162;2022-09-02T20:14:35;0.00;;;0.00;;
65170;SDS011;51757;52.208;5.162;2022-09-02T20:17:07;0.00;;;0.00;;
65170;SDS011;51757;52.208;5.162;2022-09-02T20:22:13;0.00;;;0.00;;
65170;SDS011;51757;52.208;5.162;2022-09-02T20:24:45;0.00;;;0.00;;
65170;SDS011;51757;52.208;5.162;2022-09-02T20:27:27;0.00;;;0.00;;